EBCI - Charleroi/Gosselies, Belgium
Distance de la station: NE 18km
Mise à jour: 31/10/2020 19:20
Pluie, principalement nuageux
Pluie, principalement nuageux
 Wind from S
Vent: S 24 km/h
Température: 14°C
Point de rosée: 12°C
Humidité: 88%
Baromètre: 1014 hPa
Résumé: Pluie
Ciel: principalement nuageux
Visibilité: 7 km
Détails du ciel: partiellement nuageux 762 m
principalement nuageux 1067 m
2020/10/31 18:20 EBCI 311820Z 19013KT 7000 RA SCT025 BKN035 14/12 Q1014 TEMPO 18015G25KT 4000 RA BKN013
EBFS - Florennes, Belgium
Distance de la station: ESE 31km
Mise à jour: 31/10/2020 19:37
principalement nuageux
principalement nuageux
 Wind from S
Vent: S 24 km/h
Température: 13°C
Point de rosée: 12°C
Humidité: 94%
Baromètre: 1015 hPa
Ciel: principalement nuageux
Visibilité: 10 km
Détails du ciel: quelques nuages 366 m
partiellement nuageux 732 m
principalement nuageux 3048 m
2020/10/31 18:37 EBFS 311837Z AUTO 19013KT 9999 FEW012/// SCT024/// BKN100/// 13/12 Q1015 WHT
EBCV - Chievres, Belgium
Distance de la station: NO 40km
Mise à jour: 31/10/2020 19:25
pluie légère, couvert
pluie légère, couvert
 Wind from SSO
Vent: SSO 30 km/h
Température: 15°C
Point de rosée: 13°C
Humidité: 88%
Baromètre: 1013 hPa
Résumé: pluie légère
Ciel: couvert
Visibilité: 9 km
Détails du ciel: couvert 396 m
2020/10/31 18:25 EBCV 311825Z AUTO 20016KT 9000 -RA OVC013/// 15/13 Q1013 GRN
 
EBBE - Beauvechain, Belgium
Distance de la station: NE 57km
Mise à jour: 31/10/2020 19:25
principalement nuageux
principalement nuageux
 Wind from S
Vent: S 33 km/h
Température: 15°C
Point de rosée: 12°C
Humidité: 82%
Baromètre: 1013 hPa
Ciel: principalement nuageux
Visibilité: 10 km
Détails du ciel: quelques nuages 792 m
principalement nuageux 914 m
principalement nuageux 1128 m
2020/10/31 18:25 EBBE 311825Z AUTO 19018KT 9999 FEW026/// BKN030/// BKN037/// 15/12 Q1013 BLU
EBBR - Brussels National, Belgium
Distance de la station: NNE 63km
Mise à jour: 31/10/2020 19:20
pluie légère, principalement nuageux
pluie légère, principalement nuageux
 Wind from SSO
Vent: SSO 26 km/h
Température: 15°C
Point de rosée: 12°C
Humidité: 82%
Baromètre: 1013 hPa
Résumé: pluie légère
Ciel: principalement nuageux
Visibilité: 10 km
Détails du ciel: quelques nuages 335 m
principalement nuageux 732 m
2020/10/31 18:20 EBBR 311820Z 20014KT 9999 -RA FEW011 BKN024 15/12 Q1013 TEMPO BKN013
LFQI - Cambrai/Epinoy, France
Distance de la station: O 82km
Mise à jour: 29/06/2012 12:30
NOT Current

 Wind from SO
Vent: SO 17 km/h
Température: 18°C
Point de rosée: 14°C
Humidité: 78%
Baromètre: 1009 hPa
2012/06/29 10:30 LFQI 291030Z AUTO 22009KT //// // ///////// 18/14 Q1009
 
LFQQ - Lille/Lesquin, France
Distance de la station: ONO 86km
Mise à jour: 31/10/2020 19:30
Thunderstorm
Thunderstorm
 Wind from OSO
Vent: OSO 31 km/h
Température: 15°C
Point de rosée: 12°C
Humidité: 82%
Baromètre: 1013 hPa
Ciel: Thunderstorm
Visibilité: 10 km
Détails du ciel: principalement nuageux 488 m
principalement nuageux 640 m
principalement nuageux 823 m
2020/10/31 18:30 LFQQ 311830Z AUTO 24017KT 9999 BKN016/// BKN021/// BKN027/// ///TCU 15/12 Q1013 TEMPO 20025G40KT BECMG SCT035
EBLG - Bierset/Liege, Belgium
Distance de la station: ENE 89km
Mise à jour: 31/10/2020 19:20
partiellement nuageux
partiellement nuageux
 Wind from SSO
Vent: SSO 26 km/h
Température: 14°C
Point de rosée: 11°C
Humidité: 82%
Baromètre: 1014 hPa
Ciel: partiellement nuageux
Visibilité: 10 km
Détails du ciel: partiellement nuageux 914 m
2020/10/31 18:20 EBLG 311820Z 20014KT 9999 SCT030 14/11 Q1014 TEMPO 19015G25KT 3500 RA
EBDT - Schaffen, Belgium
Distance de la station: NE 93km
Mise à jour: 31/10/2020 19:25
couvert
couvert
 Wind from SSO
Vent: SSO 22 km/h
Température: 15°C
Point de rosée: 12°C
Humidité: 82%
Baromètre: 1013 hPa
Ciel: couvert
Visibilité: 10 km
Détails du ciel: partiellement nuageux 884 m
couvert 1036 m
2020/10/31 18:25 EBDT 311825Z AUTO 20012KT 9999 SCT029/// OVC034/// 15/12 Q1013 BLU
 
EBAW - Antwerp/Deurne, Belgium
Distance de la station: N 96km
Mise à jour: 31/10/2020 19:20
principalement nuageux
principalement nuageux
 Wind from SSO
Vent: SSO 20 km/h
Température: 15°C
Point de rosée: 13°C
Humidité: 88%
Baromètre: 1012 hPa
Ciel: principalement nuageux
Visibilité: 10 km
Détails du ciel: quelques nuages 518 m
principalement nuageux 762 m
2020/10/31 18:20 EBAW 311820Z 21011KT 180V240 9999 FEW017 BKN025 15/13 Q1012 TEMPO 19015G25KT 4500 RA BKN012
LFAQ - Bray, France
Distance de la station: OSO 119km
Mise à jour: 31/10/2020 19:30
principalement nuageux
principalement nuageux
 Wind from SO
Vent: SO 24 km/h
Température: 14°C
Point de rosée: 13°C
Humidité: 94%
Baromètre: 1014 hPa
Ciel: principalement nuageux
Visibilité: 10 km
Détails du ciel: partiellement nuageux 518 m
principalement nuageux 701 m
principalement nuageux 884 m
2020/10/31 18:30 LFAQ 311830Z AUTO 22013KT 9999 SCT017 BKN023 BKN029 14/13 Q1014
LFSR - Reims/Champagne, France
Distance de la station: S 120km
Mise à jour: 16/04/2012 09:00
NOT Current
partiellement nuageux
partiellement nuageux
 Wind from N
Vent: N 17 km/h
Température: 4°C
Température ressentie: 0°C
Point de rosée: 0°C
Humidité: 75%
Baromètre: 1022 hPa
Ciel: partiellement nuageux
Visibilité: 10 km
2012/04/16 07:00 LFSR 160700Z AUTO 01009KT 340V070 9999 NSC 04/00 Q1022
 
EHWO - Woensdrecht, Netherlands
Distance de la station: N 122km
Mise à jour: 31/10/2020 19:32
principalement nuageux
principalement nuageux
 Wind from SSO
Vent: SSO 19 km/h, Rafale: 37 km/h
Température: 14°C
Point de rosée: 14°C
Humidité: 100%
Baromètre: 1011 hPa
Ciel: principalement nuageux
Visibilité: 10 km
Détails du ciel: quelques nuages 244 m
partiellement nuageux 457 m
principalement nuageux 671 m
2020/10/31 18:32 EHWO 311832Z AUTO 20010G20KT 160V230 9999 FEW008 SCT015 BKN022 14/14 Q1011 WHT
EHBK - Zuid-Limburg, Netherlands
Distance de la station: ENE 123km
Mise à jour: 31/10/2020 19:25
pluie légère, principalement nuageux
pluie légère, principalement nuageux
 Wind from SSO
Vent: SSO 30 km/h
Température: 14°C
Point de rosée: 11°C
Humidité: 82%
Baromètre: 1014 hPa
Résumé: pluie légère
Ciel: principalement nuageux
Visibilité: 10 km
Détails du ciel: quelques nuages 457 m
principalement nuageux 914 m
principalement nuageux 1250 m
2020/10/31 18:25 EHBK 311825Z AUTO 21016KT 9999 -RA FEW015CB BKN030 BKN041 14/11 Q1014 TEMPO 6000 RA
EBBL - Kleine-Brogel, Belgium
Distance de la station: NE 124km
Mise à jour: 31/10/2020 19:25
couvert
couvert
 Wind from SSO
Vent: SSO 13 km/h
Température: 14°C
Point de rosée: 12°C
Humidité: 88%
Baromètre: 1013 hPa
Ciel: couvert
Visibilité: 10 km
Détails du ciel: couvert 914 m
2020/10/31 18:25 EBBL 311825Z AUTO 20007KT 9999 OVC030/// 14/12 Q1013 BLU
 
EBLB - Elsenborn, Belgium
Distance de la station: E 135km
Mise à jour: 31/10/2020 19:25
pluie légère, principalement nuageux
pluie légère, principalement nuageux
 Wind from SSO
Vent: SSO 13 km/h
Température: 11°C
Point de rosée: 9°C
Humidité: 88%
Baromètre: 1016 hPa
Résumé: pluie légère
Ciel: principalement nuageux
Visibilité: 10 km
Détails du ciel: principalement nuageux 671 m
principalement nuageux 1585 m
principalement nuageux 2499 m
2020/10/31 18:25 EBLB 311825Z AUTO 20007KT 9999 -RA BKN022/// BKN052/// BKN082/// 11/09 Q1016 WHT
EBOS - Oostende Airport, Belgium
Distance de la station: NO 136km
Mise à jour: 31/10/2020 19:20
principalement nuageux
principalement nuageux
 Wind from OSO
Vent: OSO 33 km/h
Température: 13°C
Point de rosée: 10°C
Humidité: 82%
Baromètre: 1012 hPa
Ciel: principalement nuageux
Visibilité: 10 km
Détails du ciel: quelques nuages 610 m
principalement nuageux 823 m
2020/10/31 18:20 EBOS 311820Z 24018KT 9999 FEW020 BKN027 13/10 Q1012 NOSIG
EBFN - Koksijde, Belgium
Distance de la station: NO 140km
Mise à jour: 31/10/2020 19:25
couvert
couvert
 Wind from OSO
Vent: OSO 31 km/h, Rafale: 56 km/h
Température: 14°C
Point de rosée: 10°C
Humidité: 77%
Baromètre: 1012 hPa
Ciel: couvert
Visibilité: 10 km
Détails du ciel: couvert 762 m
2020/10/31 18:25 EBFN 311825Z AUTO 25017G30KT 9999 OVC025/// 14/10 Q1012 BLU
 
ETNG - Geilenkirchen, Germany
Distance de la station: ENE 142km
Mise à jour: 29/10/2020 19:50
NOT Current
pluie légère, principalement nuageux
pluie légère, principalement nuageux
 Wind from SO
Vent: SO 17 km/h
Température: 11°C
Point de rosée: 10°C
Humidité: 94%
Baromètre: 1017 hPa
Résumé: pluie légère
Ciel: principalement nuageux
Visibilité: 10 km
Détails du ciel: quelques nuages 457 m
principalement nuageux 610 m
2020/10/29 18:50 ETNG 291850Z 22009KT 9999 -RA FEW015 BKN020 11/10 Q1017 NOSIG
EHGR - Gilze-Rijen, Netherlands
Distance de la station: NNE 143km
Mise à jour: 31/10/2020 19:25
pluie légère, Showers, principalement nuageux
pluie légère, Showers, principalement nuageux
 Wind from SSO
Vent: SSO 26 km/h
Température: 14°C
Point de rosée: 13°C
Humidité: 94%
Baromètre: 1012 hPa
Résumé: pluie légère, Showers
Ciel: principalement nuageux
Visibilité: 5 km
Détails du ciel: quelques nuages 274 m
quelques nuages 457 m
partiellement nuageux 579 m
principalement nuageux 914 m
2020/10/31 18:25 EHGR 311825Z AUTO 20014KT 160V240 5000 -SHRA FEW009 FEW015CB SCT019 BKN030 14/13 Q1012 REDZ WHT
EHEH - Eindhoven, Netherlands
Distance de la station: NNE 147km
Mise à jour: 31/10/2020 19:33
couvert
couvert
 Wind from S
Vent: S 17 km/h
Température: 14°C
Point de rosée: 12°C
Humidité: 88%
Baromètre: 1012 hPa
Ciel: couvert
Visibilité: 10 km
Détails du ciel: partiellement nuageux 671 m
couvert 792 m
2020/10/31 18:33 EHEH 311833Z AUTO 19009KT 160V220 9999 SCT022 OVC026 14/12 Q1012 WHT TEMPO FEW008 SCT015 BKN020
 
ELLX - Luxembourg, Luxembourg
Distance de la station: ESE 162km
Mise à jour: 31/10/2020 19:20
clair
clair
 Wind from S
Vent: S 13 km/h
Température: 13°C
Point de rosée: 9°C
Humidité: 77%
Baromètre: 1018 hPa
Résumé: clair
Visibilité: greater than 10 km
2020/10/31 18:20 ELLX 311820Z 19007KT 160V220 CAVOK 13/09 Q1018 NOSIG
EHVK - Volkel, Netherlands
Distance de la station: NE 174km
Mise à jour: 31/10/2020 19:25
pluie légère, Showers, couvert
pluie légère, Showers, couvert
 Wind from S
Vent: S 17 km/h
Température: 14°C
Point de rosée: 12°C
Humidité: 88%
Baromètre: 1012 hPa
Résumé: pluie légère, Showers
Ciel: couvert
Visibilité: 10 km
Détails du ciel: quelques nuages 457 m
principalement nuageux 732 m
couvert 1067 m
2020/10/31 18:25 EHVK 311825Z AUTO 19009KT 150V240 9999 -SHRA FEW015CB BKN024 OVC035 14/12 Q1012 REDZ WHT
LFOK - Chalons/Vatry, France
Distance de la station: S 174km
Mise à jour: 31/10/2020 19:30
couvert
couvert
 Wind from S
Vent: S 28 km/h
Température: 16°C
Point de rosée: 10°C
Humidité: 68%
Baromètre: 1017 hPa
Ciel: couvert
Visibilité: 10 km
Détails du ciel: principalement nuageux 1067 m
principalement nuageux 1311 m
couvert 1494 m
2020/10/31 18:30 LFOK 311830Z AUTO 19015KT 9999 BKN035 BKN043 OVC049 16/10 Q1017 NOSIG
Script from Saratoga-Weather.org